createdAt,value
2022-08-26T00:01:41.704Z,10.80
2022-08-26T00:03:54.990Z,11.25
2022-08-26T00:06:03.857Z,10.88
2022-08-26T00:08:13.201Z,10.35
2022-08-26T00:10:22.925Z,10.60
2022-08-26T00:12:37.624Z,10.70
2022-08-26T00:14:46.178Z,9.85
2022-08-26T00:16:55.308Z,10.23
2022-08-26T00:19:05.976Z,10.65
2022-08-26T00:21:16.151Z,10.68
2022-08-26T00:23:24.397Z,11.77
2022-08-26T00:25:32.900Z,11.18
2022-08-26T00:27:41.280Z,10.80
2022-08-26T00:29:49.210Z,10.55
2022-08-26T00:31:57.203Z,11.65
2022-08-26T00:34:09.482Z,11.65
2022-08-26T00:36:20.297Z,10.98
2022-08-26T00:38:28.750Z,11.65
2022-08-26T00:40:40.742Z,10.48
2022-08-26T00:42:48.895Z,11.00
2022-08-26T00:44:57.746Z,10.80
2022-08-26T00:47:10.582Z,11.82
2022-08-26T00:49:26.300Z,11.52
2022-08-26T00:51:46.622Z,11.30
2022-08-26T00:54:00.488Z,11.68
2022-08-26T00:56:12.481Z,11.32
2022-08-26T00:58:21.714Z,10.50
2022-08-26T01:00:31.656Z,11.55
2022-08-26T01:02:39.903Z,11.55
2022-08-26T01:05:13.345Z,12.20
2022-08-26T01:07:21.505Z,11.63
2022-08-26T01:09:29.980Z,11.57
2022-08-26T01:11:38.230Z,11.80
2022-08-26T01:13:47.593Z,11.60
2022-08-26T01:16:00.269Z,11.43
2022-08-26T01:18:10.414Z,11.27
2022-08-26T01:20:34.183Z,10.98
2022-08-26T01:22:53.280Z,11.90
2022-08-26T01:25:04.973Z,13.38
2022-08-26T01:27:16.286Z,12.07
2022-08-26T01:29:24.282Z,13.10
2022-08-26T01:31:36.163Z,13.25
2022-08-26T01:33:51.016Z,13.48
2022-08-26T01:35:58.965Z,13.48
2022-08-26T01:38:14.109Z,13.05
2022-08-26T01:40:26.146Z,12.73
2022-08-26T01:42:34.391Z,13.90
2022-08-26T01:44:47.901Z,14.20
2022-08-26T01:46:57.501Z,12.60
2022-08-26T01:49:09.677Z,13.43
2022-08-26T01:51:20.118Z,12.90
2022-08-26T01:53:31.129Z,13.05
2022-08-26T01:55:42.091Z,13.52
2022-08-26T01:57:54.006Z,14.18
2022-08-26T02:00:08.853Z,13.15
2022-08-26T02:02:21.032Z,13.50
2022-08-26T02:04:33.839Z,13.30
2022-08-26T02:06:44.857Z,13.57
2022-08-26T02:09:08.101Z,14.23
2022-08-26T02:11:22.380Z,14.15
2022-08-26T02:13:32.923Z,12.75
2022-08-26T02:15:43.737Z,13.30
2022-08-26T02:17:53.617Z,15.10
2022-08-26T02:20:04.879Z,13.90
2022-08-26T02:22:25.241Z,14.35
2022-08-26T02:24:50.675Z,15.00
2022-08-26T02:26:59.519Z,14.40
2022-08-26T02:29:12.087Z,14.25
2022-08-26T02:31:20.338Z,14.25
2022-08-26T02:33:30.821Z,13.48
2022-08-26T02:35:40.061Z,13.65
2022-08-26T02:37:49.513Z,13.68
2022-08-26T02:40:00.643Z,13.05
2022-08-26T02:42:08.793Z,13.20
2022-08-26T02:44:16.944Z,13.35
2022-08-26T02:46:27.769Z,13.20
2022-08-26T02:48:38.634Z,13.77
2022-08-26T02:50:46.886Z,13.57
2022-08-26T02:52:57.144Z,14.15
2022-08-26T02:55:11.020Z,13.07
2022-08-26T02:57:19.346Z,13.35
2022-08-26T02:59:31.472Z,13.35
2022-08-26T03:01:39.426Z,13.77
2022-08-26T03:03:47.372Z,14.35
2022-08-26T03:05:57.762Z,15.20
2022-08-26T03:08:06.198Z,14.65
2022-08-26T03:10:16.713Z,14.48
2022-08-26T03:12:25.630Z,14.98
2022-08-26T03:14:33.732Z,16.15
2022-08-26T03:16:41.724Z,15.52
2022-08-26T03:18:52.305Z,15.45
2022-08-26T03:21:00.541Z,14.43
2022-08-26T03:23:09.034Z,14.38
2022-08-26T03:25:21.008Z,13.48
2022-08-26T03:27:29.451Z,13.82
2022-08-26T03:29:55.474Z,13.57
2022-08-26T03:32:04.192Z,13.63
2022-08-26T03:34:12.059Z,12.95
2022-08-26T03:36:20.366Z,13.48
2022-08-26T03:38:28.164Z,14.60
2022-08-26T03:40:39.889Z,14.05
2022-08-26T03:42:48.674Z,14.23
2022-08-26T03:44:57.243Z,13.70
2022-08-26T03:47:05.214Z,14.20
2022-08-26T03:49:14.239Z,13.90
2022-08-26T03:51:23.151Z,14.80
2022-08-26T03:53:32.802Z,13.77
2022-08-26T03:55:46.640Z,13.93
2022-08-26T03:57:57.204Z,14.95
2022-08-26T04:00:07.556Z,13.25
2022-08-26T04:02:16.480Z,14.65
2022-08-26T04:04:25.817Z,13.73
2022-08-26T04:06:36.166Z,14.68
2022-08-26T04:09:02.712Z,14.93
2022-08-26T04:11:22.643Z,14.95
2022-08-26T04:13:32.845Z,14.77
2022-08-26T04:15:40.817Z,15.20
2022-08-26T04:17:48.734Z,15.48
2022-08-26T04:19:56.940Z,15.07
2022-08-26T04:22:06.576Z,15.90
2022-08-26T04:24:16.555Z,15.60
2022-08-26T04:26:29.027Z,15.05
2022-08-26T04:28:37.129Z,15.65
2022-08-26T04:30:45.443Z,15.30
2022-08-26T04:32:53.444Z,14.88
2022-08-26T04:35:01.961Z,14.88
2022-08-26T04:37:10.783Z,13.93
2022-08-26T04:39:20.419Z,14.10
2022-08-26T04:41:31.692Z,14.00
2022-08-26T04:43:39.715Z,14.05
2022-08-26T04:45:47.591Z,14.98
2022-08-26T04:47:57.527Z,14.13
2022-08-26T04:50:06.246Z,14.95
2022-08-26T04:52:15.585Z,14.60
2022-08-26T04:54:25.193Z,14.60
2022-08-26T04:56:38.748Z,14.80
2022-08-26T04:58:46.790Z,14.50
2022-08-26T05:00:56.907Z,14.70
2022-08-26T05:03:05.113Z,14.07
2022-08-26T05:05:14.240Z,14.10
2022-08-26T05:07:22.348Z,13.85
2022-08-26T05:09:30.755Z,12.80
2022-08-26T05:11:41.433Z,12.93
2022-08-26T05:13:49.837Z,12.88
2022-08-26T05:15:58.221Z,12.35
2022-08-26T05:18:11.517Z,11.50
2022-08-26T05:20:25.188Z,11.88
2022-08-26T05:22:34.086Z,11.02
2022-08-26T05:24:43.355Z,11.25
2022-08-26T05:26:53.873Z,10.63
2022-08-26T05:29:01.724Z,10.63
2022-08-26T05:31:17.729Z,11.32
2022-08-26T05:33:26.508Z,10.38
2022-08-26T05:35:34.848Z,9.30
2022-08-26T05:37:43.019Z,9.73
2022-08-26T05:39:51.346Z,10.20
2022-08-26T05:42:04.407Z,10.00
2022-08-26T05:44:15.543Z,9.30
2022-08-26T05:46:24.509Z,9.40
2022-08-26T05:48:34.521Z,9.40
2022-08-26T05:50:43.824Z,9.30
2022-08-26T05:52:52.159Z,9.50
2022-08-26T05:55:00.096Z,10.10
2022-08-26T05:57:12.180Z,10.70
2022-08-26T05:59:24.115Z,10.03
2022-08-26T06:01:35.832Z,10.50
2022-08-26T06:03:46.603Z,10.75
2022-08-26T06:05:57.376Z,11.75
2022-08-26T06:08:14.757Z,11.60
2022-08-26T06:10:33.024Z,10.75
2022-08-26T06:12:44.184Z,11.15
2022-08-26T06:14:52.127Z,10.70
2022-08-26T06:17:00.927Z,10.50
2022-08-26T06:19:11.515Z,9.68
2022-08-26T06:21:22.001Z,9.97
2022-08-26T06:23:44.588Z,9.90
2022-08-26T06:25:53.245Z,8.80
2022-08-26T06:28:04.034Z,9.67
2022-08-26T06:30:13.131Z,9.60
2022-08-26T06:32:21.371Z,9.60
2022-08-26T06:34:31.324Z,8.40
2022-08-26T06:36:39.623Z,10.20
2022-08-26T06:38:47.905Z,9.40
2022-08-26T06:40:59.859Z,9.80
2022-08-26T06:43:10.410Z,10.40
2022-08-26T06:45:20.594Z,9.33
2022-08-26T06:47:29.208Z,10.27
2022-08-26T06:49:37.227Z,9.57
2022-08-26T06:51:46.987Z,10.03
2022-08-26T06:53:59.604Z,9.30
2022-08-26T06:56:09.644Z,10.07
2022-08-26T06:58:20.242Z,9.20
2022-08-26T07:00:28.445Z,9.00
2022-08-26T07:02:37.487Z,9.83
2022-08-26T07:04:45.438Z,9.80
2022-08-26T07:06:56.819Z,9.73
2022-08-26T07:09:09.762Z,9.70
2022-08-26T07:11:19.058Z,9.93
2022-08-26T07:13:30.655Z,9.37
2022-08-26T07:15:42.802Z,10.30
2022-08-26T07:17:51.259Z,10.33
2022-08-26T07:19:59.565Z,10.13
2022-08-26T07:22:09.344Z,10.10
2022-08-26T07:24:18.437Z,10.20
2022-08-26T07:26:30.840Z,8.80
2022-08-26T07:28:42.047Z,10.10
2022-08-26T07:30:50.134Z,8.90
2022-08-26T07:32:59.624Z,8.27
2022-08-26T07:35:09.234Z,8.77
2022-08-26T07:37:17.519Z,9.07
2022-08-26T07:39:27.272Z,8.93
2022-08-26T07:41:36.702Z,9.53
2022-08-26T07:43:48.565Z,8.80
2022-08-26T07:45:56.752Z,8.87
2022-08-26T07:48:05.385Z,8.33
2022-08-26T07:50:14.102Z,8.17
2022-08-26T07:52:26.581Z,8.10
2022-08-26T07:54:37.414Z,8.33
2022-08-26T07:56:46.291Z,8.87
2022-08-26T07:58:57.064Z,8.50
2022-08-26T08:01:05.121Z,8.60
2022-08-26T08:03:17.877Z,8.50
2022-08-26T08:05:33.607Z,10.00
2022-08-26T08:07:45.403Z,9.40
2022-08-26T08:09:53.457Z,9.37
2022-08-26T08:12:01.545Z,9.07
2022-08-26T08:14:12.236Z,9.10
2022-08-26T08:16:21.668Z,9.20
2022-08-26T08:18:32.649Z,9.30
2022-08-26T08:20:42.304Z,10.10
2022-08-26T08:22:53.429Z,9.23
2022-08-26T08:25:02.940Z,9.70
2022-08-26T08:27:14.161Z,9.60
2022-08-26T08:29:25.009Z,9.40
2022-08-26T08:34:02.315Z,9.00
2022-08-26T08:36:10.827Z,9.20
2022-08-26T08:38:28.472Z,9.30
2022-08-26T08:40:37.669Z,9.13
2022-08-26T08:42:53.824Z,9.60
2022-08-26T08:45:10.822Z,8.87
2022-08-26T08:47:24.219Z,9.37
2022-08-26T08:49:34.072Z,9.50
2022-08-26T08:51:50.048Z,10.03
2022-08-26T08:53:59.076Z,9.60
2022-08-26T08:56:21.375Z,9.03
2022-08-26T08:58:38.414Z,10.03
2022-08-26T09:00:54.403Z,10.00
2022-08-26T09:03:10.910Z,9.00
2022-08-26T09:05:24.507Z,9.73
2022-08-26T09:07:37.049Z,10.33
2022-08-26T09:09:49.313Z,9.40
2022-08-26T09:11:59.415Z,9.77
2022-08-26T09:14:11.103Z,9.37
2022-08-26T09:16:27.059Z,9.37
2022-08-26T09:18:47.563Z,9.27
2022-08-26T09:20:59.770Z,9.30
2022-08-26T09:23:07.705Z,9.33
2022-08-26T09:25:18.079Z,9.40
2022-08-26T09:27:41.051Z,8.20
2022-08-26T09:29:50.372Z,7.53
2022-08-26T09:32:21.280Z,7.67
2022-08-26T09:34:30.888Z,7.50
2022-08-26T09:36:42.623Z,7.40
2022-08-26T09:38:52.509Z,7.40
2022-08-26T09:41:02.350Z,8.33
2022-08-26T09:43:22.192Z,6.90
2022-08-26T09:45:31.979Z,7.17
2022-08-26T09:47:54.709Z,7.03
2022-08-26T09:50:12.628Z,7.03
2022-08-26T09:52:26.791Z,7.53
2022-08-26T09:54:38.613Z,7.80
2022-08-26T09:56:48.437Z,7.53
2022-08-26T09:58:57.831Z,8.30
2022-08-26T10:01:10.234Z,8.20
2022-08-26T10:03:28.611Z,8.10
2022-08-26T10:05:45.535Z,8.07
2022-08-26T10:07:54.417Z,8.50
2022-08-26T10:10:04.391Z,8.63
2022-08-26T10:12:18.270Z,8.00
2022-08-26T10:14:30.852Z,9.17
2022-08-26T10:16:53.576Z,8.40
2022-08-26T10:19:11.470Z,8.13
2022-08-26T10:21:24.474Z,7.80
2022-08-26T10:23:35.824Z,8.40
2022-08-26T10:25:58.996Z,8.00
2022-08-26T10:28:11.182Z,7.60
2022-08-26T10:30:21.215Z,7.90
2022-08-26T10:32:35.811Z,17.30
2022-08-26T10:34:51.733Z,9.10
2022-08-26T10:37:13.744Z,8.03
2022-08-26T10:39:29.272Z,8.20
2022-08-26T10:41:44.269Z,7.80
2022-08-26T10:43:57.989Z,8.20
2022-08-26T10:46:11.281Z,8.20
2022-08-26T10:48:23.565Z,7.57
2022-08-26T10:50:38.731Z,8.10
2022-08-26T10:53:01.350Z,7.40
2022-08-26T10:55:19.243Z,7.70
2022-08-26T10:57:38.263Z,8.10
2022-08-26T10:59:55.584Z,7.00
2022-08-26T11:02:08.995Z,7.00
2022-08-26T11:04:47.098Z,7.27
2022-08-26T11:07:25.708Z,7.93
2022-08-26T11:09:50.801Z,7.53
2022-08-26T11:11:58.657Z,7.03
2022-08-26T11:14:08.257Z,6.57
2022-08-26T11:16:35.528Z,6.40
2022-08-26T11:18:54.791Z,6.97
2022-08-26T11:21:02.734Z,6.60
2022-08-26T11:23:50.716Z,7.20
2022-08-26T11:26:37.693Z,7.70
2022-08-26T11:28:50.672Z,7.30
2022-08-26T11:31:00.056Z,7.00
2022-08-26T11:33:09.268Z,8.67
2022-08-26T11:35:53.295Z,8.50
2022-08-26T11:38:04.498Z,8.60
2022-08-26T11:40:17.345Z,8.63
2022-08-26T11:42:37.912Z,9.27
2022-08-26T11:44:49.625Z,10.13
2022-08-26T11:47:00.323Z,10.13
2022-08-26T11:49:09.987Z,9.53
2022-08-26T11:51:25.930Z,9.27
2022-08-26T11:53:37.179Z,9.20
2022-08-26T11:55:47.289Z,9.90
2022-08-26T11:58:04.629Z,9.43
2022-08-26T12:00:20.856Z,8.90
2022-08-26T12:02:31.346Z,9.50
2022-08-26T12:04:44.607Z,9.53
2022-08-26T12:06:54.392Z,9.90
2022-08-26T12:09:04.605Z,9.77
2022-08-26T12:11:23.217Z,8.80
2022-08-26T12:13:33.971Z,8.67
2022-08-26T12:15:42.494Z,8.93
2022-08-26T12:17:54.360Z,9.20
2022-08-26T12:20:02.872Z,9.30
2022-08-26T12:22:20.962Z,9.60
2022-08-26T12:24:29.345Z,10.40
2022-08-26T12:26:40.084Z,10.00
2022-08-26T12:28:55.222Z,8.90
2022-08-26T12:31:05.168Z,7.70
2022-08-26T12:33:22.259Z,8.40
2022-08-26T12:35:31.436Z,8.60
2022-08-26T12:37:44.894Z,8.87
2022-08-26T12:39:53.440Z,9.30
2022-08-26T12:42:03.097Z,9.87
2022-08-26T12:44:34.139Z,9.23
2022-08-26T12:46:43.916Z,9.20
2022-08-26T12:48:55.039Z,9.60
2022-08-26T12:51:03.601Z,9.47
2022-08-26T12:53:22.579Z,10.03
2022-08-26T12:55:40.829Z,8.97
2022-08-26T12:57:50.228Z,8.50
2022-08-26T13:00:36.707Z,9.27
2022-08-26T13:02:44.565Z,8.90
2022-08-26T13:05:01.183Z,9.70
2022-08-26T13:07:17.251Z,9.17
2022-08-26T13:09:33.999Z,8.13
2022-08-26T13:12:02.315Z,8.60
2022-08-26T13:14:12.611Z,8.93
2022-08-26T13:16:29.329Z,8.13
2022-08-26T13:18:37.598Z,8.70
2022-08-26T13:20:49.162Z,8.90
2022-08-26T13:22:59.067Z,8.00
2022-08-26T13:25:07.959Z,9.27
2022-08-26T13:27:20.751Z,9.50
2022-08-26T13:29:28.737Z,9.10
2022-08-26T13:31:41.526Z,9.90
2022-08-26T13:33:49.945Z,8.60
2022-08-26T13:35:58.295Z,9.60
2022-08-26T13:38:09.025Z,8.40
2022-08-26T13:40:17.319Z,9.10
2022-08-26T13:42:25.565Z,9.50
2022-08-26T13:44:33.545Z,8.60
2022-08-26T13:48:53.484Z,9.50
2022-08-26T13:51:02.717Z,9.10
2022-08-26T13:53:17.309Z,8.80
2022-08-26T13:55:25.249Z,8.20
2022-08-26T13:57:33.652Z,9.03
2022-08-26T13:59:41.680Z,8.10
2022-08-26T14:01:52.550Z,9.40
2022-08-26T14:04:02.610Z,9.30
2022-08-26T14:06:10.857Z,8.50
2022-08-26T14:08:20.154Z,8.40
2022-08-26T14:10:29.245Z,8.10
2022-08-26T14:12:37.043Z,10.07
2022-08-26T14:14:48.256Z,8.77
2022-08-26T14:17:00.404Z,8.60
2022-08-26T14:19:10.313Z,9.53
2022-08-26T14:21:18.415Z,9.30
2022-08-26T14:23:26.287Z,10.00
2022-08-26T14:25:34.223Z,8.40
2022-08-26T14:27:42.902Z,8.70
2022-08-26T14:29:52.369Z,9.50
2022-08-26T14:32:15.213Z,9.13
2022-08-26T14:34:23.210Z,7.90
2022-08-26T14:36:32.433Z,8.37
2022-08-26T14:38:40.452Z,8.60
2022-08-26T14:40:48.448Z,8.97
2022-08-26T14:42:58.897Z,8.60
2022-08-26T14:45:11.559Z,8.70
2022-08-26T14:47:22.708Z,9.40
2022-08-26T14:49:31.615Z,9.40
2022-08-26T14:51:40.747Z,9.33
2022-08-26T14:54:01.014Z,8.73
2022-08-26T14:56:09.723Z,9.37
2022-08-26T14:58:20.187Z,8.27
2022-08-26T15:00:28.590Z,9.07
2022-08-26T15:02:39.845Z,8.30
2022-08-26T15:04:47.802Z,8.43
2022-08-26T15:06:59.750Z,8.70
2022-08-26T15:09:08.610Z,9.13
2022-08-26T15:11:18.342Z,8.70
2022-08-26T15:13:26.274Z,9.17
2022-08-26T15:15:34.317Z,9.50
2022-08-26T15:17:45.131Z,9.93
2022-08-26T15:19:53.513Z,10.17
2022-08-26T15:22:01.531Z,10.20
2022-08-26T15:24:09.757Z,8.67
2022-08-26T15:26:18.724Z,8.80
2022-08-26T15:28:26.550Z,7.87
2022-08-26T15:30:34.726Z,8.23
2022-08-26T15:32:45.519Z,7.47
2022-08-26T15:34:53.449Z,8.00
2022-08-26T15:37:02.129Z,7.87
2022-08-26T15:39:10.544Z,7.57
2022-08-26T15:41:20.044Z,8.00
2022-08-26T15:43:29.827Z,6.90
2022-08-26T15:45:37.803Z,7.57
2022-08-26T15:48:00.871Z,7.17
2022-08-26T15:50:11.101Z,7.87
2022-08-26T15:52:19.071Z,7.67
2022-08-26T15:54:28.392Z,7.47
2022-08-26T15:56:47.999Z,7.80
2022-08-26T15:58:56.736Z,8.17
2022-08-26T16:01:04.710Z,7.73
2022-08-26T16:03:15.196Z,8.80
2022-08-26T16:05:23.065Z,7.70
2022-08-26T16:07:30.991Z,7.67
2022-08-26T16:09:38.911Z,7.90
2022-08-26T16:11:47.062Z,8.10
2022-08-26T16:13:55.433Z,8.50
2022-08-26T16:16:03.536Z,8.43
2022-08-26T16:18:15.677Z,7.60
2022-08-26T16:20:23.856Z,8.07
2022-08-26T16:22:33.283Z,7.80
2022-08-26T16:24:41.456Z,7.47
2022-08-26T16:26:49.269Z,7.13
2022-08-26T16:28:57.294Z,7.33
2022-08-26T16:31:05.312Z,7.10
2022-08-26T16:33:29.560Z,6.37
2022-08-26T16:35:37.776Z,7.00
2022-08-26T16:37:45.948Z,6.13
2022-08-26T16:39:53.919Z,6.18
2022-08-26T16:42:01.751Z,5.80
2022-08-26T16:44:12.156Z,4.85
2022-08-26T16:46:22.297Z,5.60
2022-08-26T16:48:32.940Z,6.20
2022-08-26T16:50:43.070Z,5.25
2022-08-26T16:52:55.775Z,5.72
2022-08-26T16:55:04.950Z,6.50
2022-08-26T16:57:14.223Z,6.15
2022-08-26T16:59:22.421Z,6.50
2022-08-26T17:01:31.444Z,6.53
2022-08-26T17:03:41.888Z,6.95
2022-08-26T17:05:49.913Z,7.30
2022-08-26T17:07:58.905Z,7.60
2022-08-26T17:10:07.815Z,6.55
2022-08-26T17:12:15.786Z,7.85
2022-08-26T17:14:24.165Z,7.32
2022-08-26T17:16:32.200Z,7.30
2022-08-26T17:18:43.557Z,7.57
2022-08-26T17:20:54.006Z,7.70
2022-08-26T17:23:02.123Z,7.68
2022-08-26T17:25:16.724Z,7.88
2022-08-26T17:27:24.743Z,6.80
2022-08-26T17:29:32.627Z,6.85
2022-08-26T17:31:40.633Z,5.60
2022-08-26T17:33:55.649Z,5.28
2022-08-26T17:36:03.953Z,5.75
2022-08-26T17:38:12.045Z,6.20
2022-08-26T17:40:23.061Z,6.57
2022-08-26T17:42:31.877Z,6.43
2022-08-26T17:44:39.844Z,6.95
2022-08-26T17:46:47.842Z,6.70
2022-08-26T17:48:58.648Z,6.57
2022-08-26T17:51:10.171Z,5.70
2022-08-26T17:53:19.076Z,5.95
2022-08-26T17:55:27.284Z,5.30
2022-08-26T17:57:40.482Z,5.93
2022-08-26T17:59:49.114Z,6.10
2022-08-26T18:02:01.477Z,5.22
2022-08-26T18:04:13.646Z,4.60
2022-08-26T18:06:23.643Z,4.35
2022-08-26T18:08:32.071Z,3.83
2022-08-26T18:10:40.242Z,4.28
2022-08-26T18:12:48.593Z,4.05
2022-08-26T18:14:56.529Z,4.45
2022-08-26T18:17:05.191Z,4.20
2022-08-26T18:19:15.746Z,4.13
2022-08-26T18:21:28.644Z,3.33
2022-08-26T18:23:38.478Z,4.22
2022-08-26T18:25:47.033Z,4.80
2022-08-26T18:27:58.093Z,7.00
2022-08-26T18:30:07.845Z,6.25
2022-08-26T18:32:18.132Z,6.20
2022-08-26T18:34:29.451Z,5.70
2022-08-26T18:36:40.279Z,6.45
2022-08-26T18:38:50.305Z,7.15
2022-08-26T18:40:58.526Z,5.55
2022-08-26T18:43:06.566Z,5.63
2022-08-26T18:45:16.038Z,5.45
2022-08-26T18:47:24.175Z,7.43
2022-08-26T18:49:34.930Z,7.65
2022-08-26T18:51:43.691Z,8.30
2022-08-26T18:53:51.860Z,7.70
2022-08-26T18:55:59.862Z,7.80
2022-08-26T18:58:07.651Z,8.13
2022-08-26T19:00:17.567Z,9.60
2022-08-26T19:02:27.402Z,8.40
2022-08-26T19:04:41.358Z,8.57
2022-08-26T19:06:51.061Z,9.18
2022-08-26T19:09:00.278Z,9.75
2022-08-26T19:11:08.734Z,9.35
2022-08-26T19:13:17.174Z,9.55
2022-08-26T19:15:25.393Z,8.75
2022-08-26T19:17:33.497Z,10.23
2022-08-26T19:19:55.083Z,9.68
2022-08-26T19:22:03.209Z,10.70
2022-08-26T19:24:15.752Z,10.05
2022-08-26T19:26:24.322Z,10.68
2022-08-26T19:28:32.585Z,11.32
2022-08-26T19:30:42.119Z,11.52
2022-08-26T19:32:51.195Z,11.05
2022-08-26T19:35:01.641Z,11.85
2022-08-26T19:37:09.444Z,11.85
2022-08-26T19:39:17.471Z,11.55
2022-08-26T19:41:40.152Z,11.70
2022-08-26T19:43:48.229Z,11.27
2022-08-26T19:45:57.004Z,11.93
2022-08-26T19:48:11.436Z,11.75
2022-08-26T19:50:22.465Z,11.68
2022-08-26T19:52:33.391Z,12.65
2022-08-26T19:54:49.626Z,12.57
2022-08-26T19:56:57.514Z,12.30
2022-08-26T19:59:06.007Z,11.50
2022-08-26T20:01:15.052Z,12.60
2022-08-26T20:03:23.924Z,12.05
2022-08-26T20:05:34.416Z,11.57
2022-08-26T20:07:43.310Z,11.40
2022-08-26T20:09:51.887Z,10.88
2022-08-26T20:12:00.196Z,12.50
2022-08-26T20:14:08.443Z,12.10
2022-08-26T20:16:17.072Z,11.55
2022-08-26T20:18:37.879Z,12.65
2022-08-26T20:21:01.892Z,11.45
2022-08-26T20:23:09.682Z,11.45
2022-08-26T20:25:17.922Z,11.80
2022-08-26T20:27:37.804Z,12.02
2022-08-26T20:29:50.341Z,11.82
2022-08-26T20:32:01.777Z,10.70
2022-08-26T20:34:10.034Z,12.15
2022-08-26T20:36:21.508Z,10.90
2022-08-26T20:38:29.390Z,10.25
2022-08-26T20:40:37.392Z,11.57
2022-08-26T20:42:45.513Z,11.48
2022-08-26T20:44:54.205Z,10.68
2022-08-26T20:47:03.045Z,11.55
2022-08-26T20:49:11.381Z,11.90
2022-08-26T20:51:23.002Z,11.57
2022-08-26T20:53:31.858Z,10.90
2022-08-26T20:55:39.649Z,11.18
2022-08-26T20:57:47.532Z,12.00
2022-08-26T20:59:55.332Z,11.60
2022-08-26T21:02:03.175Z,11.55
2022-08-26T21:04:13.480Z,11.35
2022-08-26T21:06:24.447Z,13.25
2022-08-26T21:08:33.377Z,13.65
2022-08-26T21:10:41.681Z,12.63
2022-08-26T21:12:49.801Z,13.30
2022-08-26T21:14:58.333Z,13.60
2022-08-26T21:17:06.930Z,13.20
2022-08-26T21:19:18.042Z,13.75
2022-08-26T21:21:29.746Z,14.73
2022-08-26T21:23:38.179Z,14.40
2022-08-26T21:25:46.219Z,15.95
2022-08-26T21:27:55.745Z,17.10
2022-08-26T21:30:03.637Z,15.15
2022-08-26T21:32:12.487Z,16.70
2022-08-26T21:34:23.772Z,16.08
2022-08-26T21:36:34.481Z,16.45
2022-08-26T21:38:44.188Z,16.83
2022-08-26T21:41:00.995Z,16.98
2022-08-26T21:43:08.821Z,17.52
2022-08-26T21:45:22.406Z,18.77
2022-08-26T21:47:32.797Z,18.40
2022-08-26T21:49:40.751Z,19.55
2022-08-26T21:51:52.723Z,18.67
2022-08-26T21:54:01.516Z,21.40
2022-08-26T21:56:11.308Z,22.27
2022-08-26T21:58:19.419Z,21.10
2022-08-26T22:00:27.547Z,22.73
2022-08-26T22:02:35.440Z,22.30
2022-08-26T22:04:48.152Z,24.58
2022-08-26T22:07:00.370Z,25.55
2022-08-26T22:09:08.298Z,26.25
2022-08-26T22:11:17.957Z,24.98
2022-08-26T22:13:28.913Z,24.15
2022-08-26T22:15:40.399Z,24.13
2022-08-26T22:17:49.593Z,23.20
2022-08-26T22:19:58.209Z,21.20
2022-08-26T22:22:08.695Z,21.20
2022-08-26T22:24:17.014Z,19.40
2022-08-26T22:26:26.776Z,19.08
2022-08-26T22:28:35.194Z,17.08
2022-08-26T22:30:45.075Z,18.65
2022-08-26T22:32:53.242Z,17.02
2022-08-26T22:35:01.595Z,15.90
2022-08-26T22:37:21.773Z,19.08
2022-08-26T22:39:29.880Z,21.85
2022-08-26T22:41:38.025Z,22.05
2022-08-26T22:43:45.841Z,19.88
2022-08-26T22:45:54.718Z,20.88
2022-08-26T22:48:04.706Z,21.70
2022-08-26T22:50:13.188Z,22.25
2022-08-26T22:52:23.658Z,22.98
2022-08-26T22:54:31.819Z,24.20
2022-08-26T22:56:40.866Z,27.58
2022-08-26T22:58:48.745Z,27.35
2022-08-26T23:00:56.844Z,27.30
2022-08-26T23:03:07.788Z,28.10
2022-08-26T23:05:16.409Z,26.92
2022-08-26T23:07:26.892Z,25.98
2022-08-26T23:09:36.908Z,27.20
2022-08-26T23:11:46.291Z,26.63
2022-08-26T23:13:54.496Z,25.90
2022-08-26T23:16:03.768Z,26.35
2022-08-26T23:18:12.722Z,26.05
2022-08-26T23:20:21.573Z,24.00
2022-08-26T23:22:33.286Z,25.13
2022-08-26T23:24:42.355Z,25.38
2022-08-26T23:26:50.937Z,23.40
2022-08-26T23:28:58.799Z,22.63
2022-08-26T23:31:07.308Z,25.60
2022-08-26T23:33:16.102Z,23.67
2022-08-26T23:35:22.281Z,21.35
2022-08-26T23:37:36.633Z,21.15
2022-08-26T23:40:01.211Z,20.33
2022-08-26T23:42:09.468Z,18.25
2022-08-26T23:44:21.639Z,15.82
2022-08-26T23:46:29.701Z,16.83
2022-08-26T23:48:37.807Z,15.32
2022-08-26T23:50:57.999Z,15.30
2022-08-26T23:53:09.078Z,14.82
2022-08-26T23:55:17.074Z,14.10
2022-08-26T23:57:27.829Z,13.88
2022-08-26T23:59:35.696Z,13.65
